Pleasant Valley, Vermont
Current Conditions -  °F | °C
As of 2:54 PM on Saturday 25 Oct 2014 (Local Time) from KMVL Reporting Station
Few Clouds Few Clouds  
Wind Chill: 60°   Ceiling: Unl
Heat Index: 60°   Visibility: 10mi
Dew Point: 40°   Wind: 7mph
Humidity: 47%   Direction: 200°SSW
Pressure: 29.58"   Gusts: NA
Location:  44.6543°N, 72.8545°W
Report Text: KMVL 251854Z AUTO 20006KT 10SM FEW050 16/04 A2958 RMK AO2 SLP021 T01560044
Loading
Personal Weather Stations






























Interactive Weather Map
Tropical Storm Tracking
New forecast layout! Learn more

10-Day Weather Forecast

Advertisements
Track Severe Weather on mobile